sensor_id;sensor_type;location;lat;lon;timestamp;P1;durP1;ratioP1;P2;durP2;ratioP2
23555;SDS011;11956;53.184;8.578;2022-09-09T00:01:50;38.97;;;26.48;;
23555;SDS011;11956;53.184;8.578;2022-09-09T00:05:12;35.63;;;24.58;;
23555;SDS011;11956;53.184;8.578;2022-09-09T00:08:33;47.47;;;29.27;;
23555;SDS011;11956;53.184;8.578;2022-09-09T00:12:09;47.67;;;30.58;;
23555;SDS011;11956;53.184;8.578;2022-09-09T00:15:19;51.42;;;30.05;;
23555;SDS011;11956;53.184;8.578;2022-09-09T00:25:14;41.13;;;27.33;;
23555;SDS011;11956;53.184;8.578;2022-09-09T00:28:26;58.45;;;33.72;;
23555;SDS011;11956;53.184;8.578;2022-09-09T00:31:32;49.13;;;30.92;;
23555;SDS011;11956;53.184;8.578;2022-09-09T00:34:33;46.70;;;30.40;;
23555;SDS011;11956;53.184;8.578;2022-09-09T00:37:34;49.38;;;32.15;;
23555;SDS011;11956;53.184;8.578;2022-09-09T00:40:45;83.88;;;40.35;;
23555;SDS011;11956;53.184;8.578;2022-09-09T00:43:55;55.63;;;35.53;;
23555;SDS011;11956;53.184;8.578;2022-09-09T00:47:11;70.53;;;38.90;;
23555;SDS011;11956;53.184;8.578;2022-09-09T00:51:08;56.28;;;34.67;;
23555;SDS011;11956;53.184;8.578;2022-09-09T01:04:16;71.30;;;38.08;;
23555;SDS011;11956;53.184;8.578;2022-09-09T01:07:31;72.55;;;38.42;;
23555;SDS011;11956;53.184;8.578;2022-09-09T01:17:33;88.82;;;43.53;;
23555;SDS011;11956;53.184;8.578;2022-09-09T01:24:21;66.60;;;37.85;;
23555;SDS011;11956;53.184;8.578;2022-09-09T01:28:16;74.50;;;40.63;;
23555;SDS011;11956;53.184;8.578;2022-09-09T01:31:30;88.13;;;44.75;;
23555;SDS011;11956;53.184;8.578;2022-09-09T01:34:38;69.95;;;37.22;;
23555;SDS011;11956;53.184;8.578;2022-09-09T01:37:41;77.78;;;40.60;;
23555;SDS011;11956;53.184;8.578;2022-09-09T01:40:42;79.28;;;42.67;;
23555;SDS011;11956;53.184;8.578;2022-09-09T01:43:45;61.03;;;38.38;;
23555;SDS011;11956;53.184;8.578;2022-09-09T01:46:46;57.08;;;36.25;;
23555;SDS011;11956;53.184;8.578;2022-09-09T01:49:53;87.10;;;44.60;;
23555;SDS011;11956;53.184;8.578;2022-09-09T01:52:58;60.90;;;36.90;;
23555;SDS011;11956;53.184;8.578;2022-09-09T02:06:35;51.30;;;33.42;;
23555;SDS011;11956;53.184;8.578;2022-09-09T02:09:52;62.72;;;36.17;;
23555;SDS011;11956;53.184;8.578;2022-09-09T02:13:35;104.30;;;45.78;;
23555;SDS011;11956;53.184;8.578;2022-09-09T02:17:03;72.05;;;39.47;;
23555;SDS011;11956;53.184;8.578;2022-09-09T02:20:29;89.70;;;45.38;;
23555;SDS011;11956;53.184;8.578;2022-09-09T02:23:33;76.13;;;40.55;;
23555;SDS011;11956;53.184;8.578;2022-09-09T02:26:40;61.15;;;37.72;;
23555;SDS011;11956;53.184;8.578;2022-09-09T02:29:45;72.03;;;39.20;;
23555;SDS011;11956;53.184;8.578;2022-09-09T02:32:48;57.45;;;35.92;;
23555;SDS011;11956;53.184;8.578;2022-09-09T02:35:55;71.93;;;39.35;;
23555;SDS011;11956;53.184;8.578;2022-09-09T02:39:04;72.05;;;38.78;;
23555;SDS011;11956;53.184;8.578;2022-09-09T02:42:09;90.20;;;42.70;;
23555;SDS011;11956;53.184;8.578;2022-09-09T02:45:12;63.20;;;37.00;;
23555;SDS011;11956;53.184;8.578;2022-09-09T02:51:53;73.05;;;40.28;;
23555;SDS011;11956;53.184;8.578;2022-09-09T02:55:12;74.65;;;40.70;;
23555;SDS011;11956;53.184;8.578;2022-09-09T02:58:44;67.03;;;38.30;;
23555;SDS011;11956;53.184;8.578;2022-09-09T03:01:46;98.20;;;46.90;;
23555;SDS011;11956;53.184;8.578;2022-09-09T03:04:48;99.63;;;45.20;;
23555;SDS011;11956;53.184;8.578;2022-09-09T03:10:54;99.57;;;44.40;;
23555;SDS011;11956;53.184;8.578;2022-09-09T03:13:59;56.92;;;36.10;;
23555;SDS011;11956;53.184;8.578;2022-09-09T03:17:05;78.95;;;41.20;;
23555;SDS011;11956;53.184;8.578;2022-09-09T03:20:11;73.82;;;39.28;;
23555;SDS011;11956;53.184;8.578;2022-09-09T03:23:13;88.47;;;43.03;;
23555;SDS011;11956;53.184;8.578;2022-09-09T03:26:14;80.55;;;40.95;;
23555;SDS011;11956;53.184;8.578;2022-09-09T03:29:18;93.68;;;42.90;;
23555;SDS011;11956;53.184;8.578;2022-09-09T03:32:20;59.65;;;35.28;;
23555;SDS011;11956;53.184;8.578;2022-09-09T03:35:22;46.07;;;30.00;;
23555;SDS011;11956;53.184;8.578;2022-09-09T03:38:24;75.32;;;38.95;;
23555;SDS011;11956;53.184;8.578;2022-09-09T03:41:25;75.85;;;37.97;;
23555;SDS011;11956;53.184;8.578;2022-09-09T03:44:27;82.90;;;39.15;;
23555;SDS011;11956;53.184;8.578;2022-09-09T03:47:28;88.70;;;42.78;;
23555;SDS011;11956;53.184;8.578;2022-09-09T03:50:36;52.45;;;34.85;;
23555;SDS011;11956;53.184;8.578;2022-09-09T03:53:38;60.33;;;35.72;;
23555;SDS011;11956;53.184;8.578;2022-09-09T03:56:40;57.28;;;36.13;;
23555;SDS011;11956;53.184;8.578;2022-09-09T03:59:43;57.28;;;34.35;;
23555;SDS011;11956;53.184;8.578;2022-09-09T04:02:44;69.15;;;37.10;;
23555;SDS011;11956;53.184;8.578;2022-09-09T04:05:49;61.10;;;35.25;;
23555;SDS011;11956;53.184;8.578;2022-09-09T04:08:51;70.43;;;38.43;;
23555;SDS011;11956;53.184;8.578;2022-09-09T04:11:54;60.80;;;36.85;;
23555;SDS011;11956;53.184;8.578;2022-09-09T04:14:55;67.22;;;37.58;;
23555;SDS011;11956;53.184;8.578;2022-09-09T04:17:57;42.03;;;30.30;;
23555;SDS011;11956;53.184;8.578;2022-09-09T04:20:58;56.63;;;32.97;;
23555;SDS011;11956;53.184;8.578;2022-09-09T04:24:01;43.65;;;28.90;;
23555;SDS011;11956;53.184;8.578;2022-09-09T04:27:02;47.25;;;30.08;;
23555;SDS011;11956;53.184;8.578;2022-09-09T04:30:06;52.88;;;31.15;;
23555;SDS011;11956;53.184;8.578;2022-09-09T04:33:08;56.53;;;33.45;;
23555;SDS011;11956;53.184;8.578;2022-09-09T04:36:10;43.15;;;29.58;;
23555;SDS011;11956;53.184;8.578;2022-09-09T04:39:11;49.05;;;30.33;;
23555;SDS011;11956;53.184;8.578;2022-09-09T04:42:12;42.92;;;27.75;;
23555;SDS011;11956;53.184;8.578;2022-09-09T04:45:13;41.67;;;28.50;;
23555;SDS011;11956;53.184;8.578;2022-09-09T04:48:15;44.53;;;29.02;;
23555;SDS011;11956;53.184;8.578;2022-09-09T04:51:17;43.67;;;27.75;;
23555;SDS011;11956;53.184;8.578;2022-09-09T04:54:20;35.90;;;26.17;;
23555;SDS011;11956;53.184;8.578;2022-09-09T04:57:21;39.67;;;27.23;;
23555;SDS011;11956;53.184;8.578;2022-09-09T05:00:22;36.30;;;26.52;;
23555;SDS011;11956;53.184;8.578;2022-09-09T05:03:25;36.37;;;25.60;;
23555;SDS011;11956;53.184;8.578;2022-09-09T05:06:26;39.03;;;26.73;;
23555;SDS011;11956;53.184;8.578;2022-09-09T05:09:31;35.80;;;25.15;;
23555;SDS011;11956;53.184;8.578;2022-09-09T05:12:33;33.33;;;24.23;;
23555;SDS011;11956;53.184;8.578;2022-09-09T05:15:35;38.80;;;25.38;;
23555;SDS011;11956;53.184;8.578;2022-09-09T05:18:37;45.13;;;28.92;;
23555;SDS011;11956;53.184;8.578;2022-09-09T05:21:40;35.88;;;25.35;;
23555;SDS011;11956;53.184;8.578;2022-09-09T05:24:42;42.03;;;26.95;;
23555;SDS011;11956;53.184;8.578;2022-09-09T05:27:44;56.05;;;31.75;;
23555;SDS011;11956;53.184;8.578;2022-09-09T05:30:45;46.38;;;28.70;;
23555;SDS011;11956;53.184;8.578;2022-09-09T05:33:47;43.10;;;27.15;;
23555;SDS011;11956;53.184;8.578;2022-09-09T05:36:49;39.97;;;26.10;;
23555;SDS011;11956;53.184;8.578;2022-09-09T05:39:53;38.33;;;27.98;;
23555;SDS011;11956;53.184;8.578;2022-09-09T05:42:55;43.25;;;29.67;;
23555;SDS011;11956;53.184;8.578;2022-09-09T05:49:08;29.77;;;23.63;;
23555;SDS011;11956;53.184;8.578;2022-09-09T05:52:12;23.88;;;18.30;;
23555;SDS011;11956;53.184;8.578;2022-09-09T05:55:13;24.10;;;18.40;;
23555;SDS011;11956;53.184;8.578;2022-09-09T05:58:14;26.05;;;17.98;;
23555;SDS011;11956;53.184;8.578;2022-09-09T06:01:21;21.23;;;16.02;;
23555;SDS011;11956;53.184;8.578;2022-09-09T06:04:25;24.90;;;18.10;;
23555;SDS011;11956;53.184;8.578;2022-09-09T06:07:27;22.08;;;16.48;;
23555;SDS011;11956;53.184;8.578;2022-09-09T06:10:28;17.88;;;14.95;;
23555;SDS011;11956;53.184;8.578;2022-09-09T06:13:29;15.25;;;11.13;;
23555;SDS011;11956;53.184;8.578;2022-09-09T06:16:31;9.85;;;7.18;;
23555;SDS011;11956;53.184;8.578;2022-09-09T06:19:33;7.90;;;5.90;;
23555;SDS011;11956;53.184;8.578;2022-09-09T06:22:35;8.55;;;6.40;;
23555;SDS011;11956;53.184;8.578;2022-09-09T06:25:36;6.35;;;4.05;;
23555;SDS011;11956;53.184;8.578;2022-09-09T06:28:39;7.57;;;4.65;;
23555;SDS011;11956;53.184;8.578;2022-09-09T06:31:43;8.05;;;3.88;;
23555;SDS011;11956;53.184;8.578;2022-09-09T06:34:50;8.30;;;4.20;;
23555;SDS011;11956;53.184;8.578;2022-09-09T06:37:51;5.53;;;3.95;;
23555;SDS011;11956;53.184;8.578;2022-09-09T06:40:53;5.47;;;3.28;;
23555;SDS011;11956;53.184;8.578;2022-09-09T06:43:57;4.72;;;3.20;;
23555;SDS011;11956;53.184;8.578;2022-09-09T06:47:07;6.75;;;3.88;;
23555;SDS011;11956;53.184;8.578;2022-09-09T06:50:08;5.85;;;3.83;;
23555;SDS011;11956;53.184;8.578;2022-09-09T06:53:11;5.07;;;3.60;;
23555;SDS011;11956;53.184;8.578;2022-09-09T06:56:22;6.38;;;3.13;;
23555;SDS011;11956;53.184;8.578;2022-09-09T06:59:44;6.88;;;4.05;;
23555;SDS011;11956;53.184;8.578;2022-09-09T07:02:45;7.22;;;2.88;;
23555;SDS011;11956;53.184;8.578;2022-09-09T07:05:54;4.03;;;2.47;;
23555;SDS011;11956;53.184;8.578;2022-09-09T07:08:58;3.40;;;2.67;;
23555;SDS011;11956;53.184;8.578;2022-09-09T07:12:08;4.45;;;2.50;;
23555;SDS011;11956;53.184;8.578;2022-09-09T07:15:13;3.35;;;2.20;;
23555;SDS011;11956;53.184;8.578;2022-09-09T07:18:18;3.97;;;2.53;;
23555;SDS011;11956;53.184;8.578;2022-09-09T07:21:20;4.07;;;2.55;;
23555;SDS011;11956;53.184;8.578;2022-09-09T07:24:21;4.93;;;2.58;;
23555;SDS011;11956;53.184;8.578;2022-09-09T07:27:23;5.37;;;2.37;;
23555;SDS011;11956;53.184;8.578;2022-09-09T07:30:25;3.55;;;2.05;;
23555;SDS011;11956;53.184;8.578;2022-09-09T07:33:26;3.30;;;1.52;;
23555;SDS011;11956;53.184;8.578;2022-09-09T07:36:31;3.58;;;2.22;;
23555;SDS011;11956;53.184;8.578;2022-09-09T07:39:35;3.30;;;1.90;;
23555;SDS011;11956;53.184;8.578;2022-09-09T07:42:36;4.97;;;2.00;;
23555;SDS011;11956;53.184;8.578;2022-09-09T07:45:37;3.30;;;2.10;;
23555;SDS011;11956;53.184;8.578;2022-09-09T07:48:39;3.40;;;1.63;;
23555;SDS011;11956;53.184;8.578;2022-09-09T07:51:46;2.67;;;1.48;;
23555;SDS011;11956;53.184;8.578;2022-09-09T07:54:50;3.97;;;1.42;;
23555;SDS011;11956;53.184;8.578;2022-09-09T07:57:53;4.85;;;1.58;;
23555;SDS011;11956;53.184;8.578;2022-09-09T08:00:54;3.77;;;1.87;;
23555;SDS011;11956;53.184;8.578;2022-09-09T08:03:56;4.25;;;1.45;;
23555;SDS011;11956;53.184;8.578;2022-09-09T08:07:01;4.90;;;2.00;;
23555;SDS011;11956;53.184;8.578;2022-09-09T08:10:07;6.68;;;2.47;;
23555;SDS011;11956;53.184;8.578;2022-09-09T08:13:10;4.68;;;2.00;;
23555;SDS011;11956;53.184;8.578;2022-09-09T08:16:15;6.15;;;2.60;;
23555;SDS011;11956;53.184;8.578;2022-09-09T08:19:22;5.38;;;2.97;;
23555;SDS011;11956;53.184;8.578;2022-09-09T08:22:24;7.43;;;2.53;;
23555;SDS011;11956;53.184;8.578;2022-09-09T08:25:26;5.82;;;3.22;;
23555;SDS011;11956;53.184;8.578;2022-09-09T08:28:28;9.05;;;3.15;;
23555;SDS011;11956;53.184;8.578;2022-09-09T08:34:35;4.13;;;1.90;;
23555;SDS011;11956;53.184;8.578;2022-09-09T08:37:41;5.25;;;1.85;;
23555;SDS011;11956;53.184;8.578;2022-09-09T08:40:43;3.85;;;2.70;;
23555;SDS011;11956;53.184;8.578;2022-09-09T08:43:50;8.05;;;3.08;;
23555;SDS011;11956;53.184;8.578;2022-09-09T08:51:04;6.38;;;2.80;;
23555;SDS011;11956;53.184;8.578;2022-09-09T08:54:11;4.85;;;2.50;;
23555;SDS011;11956;53.184;8.578;2022-09-09T08:57:14;5.72;;;2.40;;
23555;SDS011;11956;53.184;8.578;2022-09-09T09:00:27;7.68;;;2.25;;
23555;SDS011;11956;53.184;8.578;2022-09-09T09:10:57;4.72;;;2.83;;
23555;SDS011;11956;53.184;8.578;2022-09-09T09:14:02;7.03;;;2.70;;
23555;SDS011;11956;53.184;8.578;2022-09-09T09:17:11;6.30;;;3.00;;
23555;SDS011;11956;53.184;8.578;2022-09-09T09:20:16;5.68;;;3.30;;
23555;SDS011;11956;53.184;8.578;2022-09-09T09:23:56;7.22;;;3.80;;
23555;SDS011;11956;53.184;8.578;2022-09-09T09:27:07;7.90;;;3.30;;
23555;SDS011;11956;53.184;8.578;2022-09-09T09:30:24;6.63;;;3.00;;
23555;SDS011;11956;53.184;8.578;2022-09-09T09:33:45;4.93;;;2.97;;
23555;SDS011;11956;53.184;8.578;2022-09-09T09:36:53;5.93;;;2.80;;
23555;SDS011;11956;53.184;8.578;2022-09-09T09:40:07;4.95;;;3.00;;
23555;SDS011;11956;53.184;8.578;2022-09-09T09:43:19;5.22;;;1.98;;
23555;SDS011;11956;53.184;8.578;2022-09-09T09:46:26;4.65;;;1.83;;
23555;SDS011;11956;53.184;8.578;2022-09-09T09:49:32;5.00;;;1.63;;
23555;SDS011;11956;53.184;8.578;2022-09-09T09:52:33;3.10;;;1.77;;
23555;SDS011;11956;53.184;8.578;2022-09-09T09:55:44;6.55;;;3.58;;
23555;SDS011;11956;53.184;8.578;2022-09-09T09:58:55;4.35;;;1.60;;
23555;SDS011;11956;53.184;8.578;2022-09-09T10:02:23;4.60;;;1.60;;
23555;SDS011;11956;53.184;8.578;2022-09-09T10:08:46;5.55;;;1.60;;
23555;SDS011;11956;53.184;8.578;2022-09-09T10:15:20;6.55;;;1.52;;
23555;SDS011;11956;53.184;8.578;2022-09-09T10:25:29;5.78;;;1.38;;
23555;SDS011;11956;53.184;8.578;2022-09-09T10:29:27;5.97;;;1.80;;
23555;SDS011;11956;53.184;8.578;2022-09-09T10:32:56;6.07;;;1.92;;
23555;SDS011;11956;53.184;8.578;2022-09-09T10:39:38;5.00;;;1.80;;
23555;SDS011;11956;53.184;8.578;2022-09-09T10:42:41;3.42;;;1.67;;
23555;SDS011;11956;53.184;8.578;2022-09-09T10:55:18;7.53;;;2.03;;
23555;SDS011;11956;53.184;8.578;2022-09-09T10:58:58;5.68;;;1.88;;
23555;SDS011;11956;53.184;8.578;2022-09-09T11:02:15;7.53;;;2.30;;
23555;SDS011;11956;53.184;8.578;2022-09-09T11:08:47;6.95;;;2.55;;
23555;SDS011;11956;53.184;8.578;2022-09-09T11:11:53;5.00;;;2.63;;
23555;SDS011;11956;53.184;8.578;2022-09-09T11:18:04;5.82;;;3.20;;
23555;SDS011;11956;53.184;8.578;2022-09-09T11:21:10;6.55;;;2.60;;
23555;SDS011;11956;53.184;8.578;2022-09-09T11:24:22;5.32;;;2.65;;
23555;SDS011;11956;53.184;8.578;2022-09-09T11:38:41;7.63;;;3.92;;
23555;SDS011;11956;53.184;8.578;2022-09-09T11:41:52;8.18;;;3.80;;
23555;SDS011;11956;53.184;8.578;2022-09-09T11:44:53;9.40;;;3.13;;
23555;SDS011;11956;53.184;8.578;2022-09-09T11:47:57;6.35;;;2.80;;
23555;SDS011;11956;53.184;8.578;2022-09-09T11:57:32;6.07;;;2.33;;
23555;SDS011;11956;53.184;8.578;2022-09-09T12:03:48;7.15;;;2.38;;
23555;SDS011;11956;53.184;8.578;2022-09-09T12:10:27;6.88;;;2.30;;
23555;SDS011;11956;53.184;8.578;2022-09-09T12:13:35;8.52;;;3.50;;
23555;SDS011;11956;53.184;8.578;2022-09-09T12:16:36;6.38;;;3.17;;
23555;SDS011;11956;53.184;8.578;2022-09-09T12:19:39;8.38;;;2.83;;
23555;SDS011;11956;53.184;8.578;2022-09-09T12:33:06;7.57;;;3.08;;
23555;SDS011;11956;53.184;8.578;2022-09-09T12:36:14;6.65;;;2.70;;
23555;SDS011;11956;53.184;8.578;2022-09-09T12:39:22;8.02;;;3.70;;
23555;SDS011;11956;53.184;8.578;2022-09-09T12:42:39;10.70;;;3.33;;
23555;SDS011;11956;53.184;8.578;2022-09-09T12:45:40;9.35;;;3.53;;
23555;SDS011;11956;53.184;8.578;2022-09-09T12:48:42;10.18;;;3.28;;
23555;SDS011;11956;53.184;8.578;2022-09-09T12:51:45;9.55;;;3.50;;
23555;SDS011;11956;53.184;8.578;2022-09-09T12:54:46;6.25;;;2.60;;
23555;SDS011;11956;53.184;8.578;2022-09-09T12:57:48;8.57;;;2.58;;
23555;SDS011;11956;53.184;8.578;2022-09-09T13:00:53;7.15;;;2.35;;
23555;SDS011;11956;53.184;8.578;2022-09-09T13:03:59;5.28;;;1.67;;
23555;SDS011;11956;53.184;8.578;2022-09-09T13:07:07;7.15;;;1.90;;
23555;SDS011;11956;53.184;8.578;2022-09-09T13:10:11;7.20;;;2.00;;
23555;SDS011;11956;53.184;8.578;2022-09-09T13:16:20;2.92;;;0.93;;
23555;SDS011;11956;53.184;8.578;2022-09-09T13:19:36;3.47;;;1.48;;
23555;SDS011;11956;53.184;8.578;2022-09-09T13:22:39;5.10;;;1.90;;
23555;SDS011;11956;53.184;8.578;2022-09-09T13:25:40;6.43;;;2.38;;
23555;SDS011;11956;53.184;8.578;2022-09-09T13:28:43;6.90;;;2.30;;
23555;SDS011;11956;53.184;8.578;2022-09-09T13:31:46;5.80;;;2.47;;
23555;SDS011;11956;53.184;8.578;2022-09-09T13:34:52;5.35;;;2.67;;
23555;SDS011;11956;53.184;8.578;2022-09-09T13:37:57;5.10;;;2.70;;
23555;SDS011;11956;53.184;8.578;2022-09-09T13:41:04;7.53;;;2.60;;
23555;SDS011;11956;53.184;8.578;2022-09-09T13:44:17;7.63;;;3.40;;
23555;SDS011;11956;53.184;8.578;2022-09-09T13:47:40;8.13;;;5.13;;
23555;SDS011;11956;53.184;8.578;2022-09-09T13:50:42;10.88;;;5.63;;
23555;SDS011;11956;53.184;8.578;2022-09-09T13:54:00;8.40;;;6.13;;
23555;SDS011;11956;53.184;8.578;2022-09-09T13:57:01;10.57;;;6.30;;
23555;SDS011;11956;53.184;8.578;2022-09-09T14:00:05;13.97;;;8.40;;
23555;SDS011;11956;53.184;8.578;2022-09-09T14:03:10;9.35;;;6.90;;
23555;SDS011;11956;53.184;8.578;2022-09-09T14:06:10;11.98;;;8.43;;
23555;SDS011;11956;53.184;8.578;2022-09-09T14:09:12;12.18;;;7.43;;
23555;SDS011;11956;53.184;8.578;2022-09-09T14:12:16;15.07;;;9.48;;
23555;SDS011;11956;53.184;8.578;2022-09-09T14:15:18;17.95;;;9.68;;
23555;SDS011;11956;53.184;8.578;2022-09-09T14:18:20;13.30;;;9.57;;
23555;SDS011;11956;53.184;8.578;2022-09-09T14:21:23;15.23;;;9.80;;
23555;SDS011;11956;53.184;8.578;2022-09-09T14:24:25;15.82;;;10.07;;
23555;SDS011;11956;53.184;8.578;2022-09-09T14:27:28;16.50;;;10.65;;
23555;SDS011;11956;53.184;8.578;2022-09-09T14:30:30;21.88;;;12.75;;
23555;SDS011;11956;53.184;8.578;2022-09-09T14:33:31;11.95;;;10.25;;
23555;SDS011;11956;53.184;8.578;2022-09-09T14:36:32;17.10;;;11.45;;
23555;SDS011;11956;53.184;8.578;2022-09-09T14:39:33;22.58;;;14.48;;
23555;SDS011;11956;53.184;8.578;2022-09-09T14:42:34;17.10;;;12.30;;
23555;SDS011;11956;53.184;8.578;2022-09-09T14:45:35;21.73;;;16.58;;
23555;SDS011;11956;53.184;8.578;2022-09-09T14:48:37;23.67;;;16.25;;
23555;SDS011;11956;53.184;8.578;2022-09-09T14:51:40;25.95;;;18.15;;
23555;SDS011;11956;53.184;8.578;2022-09-09T14:54:41;27.15;;;18.63;;
23555;SDS011;11956;53.184;8.578;2022-09-09T14:57:42;27.83;;;18.25;;
23555;SDS011;11956;53.184;8.578;2022-09-09T15:00:43;29.42;;;21.40;;
23555;SDS011;11956;53.184;8.578;2022-09-09T15:07:15;25.25;;;21.73;;
23555;SDS011;11956;53.184;8.578;2022-09-09T15:10:17;29.90;;;21.23;;
23555;SDS011;11956;53.184;8.578;2022-09-09T15:13:18;30.63;;;21.30;;
23555;SDS011;11956;53.184;8.578;2022-09-09T15:16:19;38.65;;;25.30;;
23555;SDS011;11956;53.184;8.578;2022-09-09T15:19:24;32.65;;;23.45;;
23555;SDS011;11956;53.184;8.578;2022-09-09T15:22:25;38.47;;;26.23;;
23555;SDS011;11956;53.184;8.578;2022-09-09T15:25:26;30.83;;;20.27;;
23555;SDS011;11956;53.184;8.578;2022-09-09T15:28:27;29.63;;;21.33;;
23555;SDS011;11956;53.184;8.578;2022-09-09T15:31:28;31.13;;;21.00;;
23555;SDS011;11956;53.184;8.578;2022-09-09T15:34:31;23.23;;;16.55;;
23555;SDS011;11956;53.184;8.578;2022-09-09T15:37:32;26.52;;;18.98;;
23555;SDS011;11956;53.184;8.578;2022-09-09T15:40:33;22.85;;;18.90;;
23555;SDS011;11956;53.184;8.578;2022-09-09T15:43:33;23.33;;;16.90;;
23555;SDS011;11956;53.184;8.578;2022-09-09T15:46:38;23.95;;;17.63;;
23555;SDS011;11956;53.184;8.578;2022-09-09T15:49:44;19.42;;;14.70;;
23555;SDS011;11956;53.184;8.578;2022-09-09T15:52:45;22.23;;;14.63;;
23555;SDS011;11956;53.184;8.578;2022-09-09T15:55:46;25.55;;;15.65;;
23555;SDS011;11956;53.184;8.578;2022-09-09T15:58:47;24.60;;;13.82;;
23555;SDS011;11956;53.184;8.578;2022-09-09T16:01:48;17.17;;;10.93;;
23555;SDS011;11956;53.184;8.578;2022-09-09T16:04:51;18.10;;;10.35;;
23555;SDS011;11956;53.184;8.578;2022-09-09T16:07:52;16.23;;;10.35;;
23555;SDS011;11956;53.184;8.578;2022-09-09T16:10:53;13.68;;;9.48;;
23555;SDS011;11956;53.184;8.578;2022-09-09T16:13:54;16.33;;;8.80;;
23555;SDS011;11956;53.184;8.578;2022-09-09T16:16:55;11.23;;;8.32;;
23555;SDS011;11956;53.184;8.578;2022-09-09T16:19:56;12.23;;;8.90;;
23555;SDS011;11956;53.184;8.578;2022-09-09T16:22:57;16.27;;;9.43;;
23555;SDS011;11956;53.184;8.578;2022-09-09T16:25:58;16.20;;;9.70;;
23555;SDS011;11956;53.184;8.578;2022-09-09T16:29:00;16.90;;;8.70;;
23555;SDS011;11956;53.184;8.578;2022-09-09T16:32:02;12.85;;;7.68;;
23555;SDS011;11956;53.184;8.578;2022-09-09T16:35:04;12.85;;;8.43;;
23555;SDS011;11956;53.184;8.578;2022-09-09T16:38:05;16.17;;;8.18;;
23555;SDS011;11956;53.184;8.578;2022-09-09T16:41:10;16.15;;;7.93;;
23555;SDS011;11956;53.184;8.578;2022-09-09T16:44:13;13.82;;;7.28;;
23555;SDS011;11956;53.184;8.578;2022-09-09T16:47:17;11.23;;;7.30;;
23555;SDS011;11956;53.184;8.578;2022-09-09T16:50:18;14.07;;;8.13;;
23555;SDS011;11956;53.184;8.578;2022-09-09T16:53:19;11.77;;;7.68;;
23555;SDS011;11956;53.184;8.578;2022-09-09T16:56:24;11.98;;;6.50;;
23555;SDS011;11956;53.184;8.578;2022-09-09T16:59:27;10.02;;;8.05;;
23555;SDS011;11956;53.184;8.578;2022-09-09T17:02:28;13.68;;;8.18;;
23555;SDS011;11956;53.184;8.578;2022-09-09T17:05:29;15.15;;;8.30;;
23555;SDS011;11956;53.184;8.578;2022-09-09T17:08:30;15.13;;;9.80;;
23555;SDS011;11956;53.184;8.578;2022-09-09T17:11:31;11.18;;;7.53;;
23555;SDS011;11956;53.184;8.578;2022-09-09T17:14:32;17.95;;;9.02;;
23555;SDS011;11956;53.184;8.578;2022-09-09T17:17:33;13.90;;;9.52;;
23555;SDS011;11956;53.184;8.578;2022-09-09T17:20:35;12.32;;;8.13;;
23555;SDS011;11956;53.184;8.578;2022-09-09T17:23:40;12.20;;;8.48;;
23555;SDS011;11956;53.184;8.578;2022-09-09T17:26:43;11.40;;;7.55;;
23555;SDS011;11956;53.184;8.578;2022-09-09T17:29:45;14.05;;;8.40;;
23555;SDS011;11956;53.184;8.578;2022-09-09T17:32:46;10.32;;;7.07;;
23555;SDS011;11956;53.184;8.578;2022-09-09T17:35:47;8.95;;;5.03;;
23555;SDS011;11956;53.184;8.578;2022-09-09T17:38:49;10.30;;;5.85;;
23555;SDS011;11956;53.184;8.578;2022-09-09T17:41:50;8.40;;;4.68;;
23555;SDS011;11956;53.184;8.578;2022-09-09T17:44:52;8.77;;;5.35;;
23555;SDS011;11956;53.184;8.578;2022-09-09T17:47:54;8.45;;;4.63;;
23555;SDS011;11956;53.184;8.578;2022-09-09T17:50:58;5.60;;;4.40;;
23555;SDS011;11956;53.184;8.578;2022-09-09T17:54:00;5.47;;;3.90;;
23555;SDS011;11956;53.184;8.578;2022-09-09T17:57:07;4.88;;;4.03;;
23555;SDS011;11956;53.184;8.578;2022-09-09T18:00:09;4.15;;;3.78;;
23555;SDS011;11956;53.184;8.578;2022-09-09T18:03:13;4.60;;;4.13;;
23555;SDS011;11956;53.184;8.578;2022-09-09T18:06:15;5.03;;;4.15;;
23555;SDS011;11956;53.184;8.578;2022-09-09T18:09:21;9.48;;;5.80;;
23555;SDS011;11956;53.184;8.578;2022-09-09T18:12:24;7.68;;;5.53;;
23555;SDS011;11956;53.184;8.578;2022-09-09T18:15:26;8.13;;;6.47;;
23555;SDS011;11956;53.184;8.578;2022-09-09T18:18:27;8.68;;;5.97;;
23555;SDS011;11956;53.184;8.578;2022-09-09T18:21:29;9.40;;;6.72;;
23555;SDS011;11956;53.184;8.578;2022-09-09T18:24:35;9.30;;;7.80;;
23555;SDS011;11956;53.184;8.578;2022-09-09T18:27:35;10.35;;;9.35;;
23555;SDS011;11956;53.184;8.578;2022-09-09T18:30:39;9.05;;;7.68;;
23555;SDS011;11956;53.184;8.578;2022-09-09T18:33:41;9.00;;;8.10;;
23555;SDS011;11956;53.184;8.578;2022-09-09T18:36:45;9.50;;;8.60;;
23555;SDS011;11956;53.184;8.578;2022-09-09T18:39:52;10.10;;;8.95;;
23555;SDS011;11956;53.184;8.578;2022-09-09T18:42:53;19.33;;;14.30;;
23555;SDS011;11956;53.184;8.578;2022-09-09T18:45:54;14.10;;;11.73;;
23555;SDS011;11956;53.184;8.578;2022-09-09T18:48:55;18.63;;;14.10;;
23555;SDS011;11956;53.184;8.578;2022-09-09T18:51:56;24.00;;;15.68;;
23555;SDS011;11956;53.184;8.578;2022-09-09T18:54:58;18.80;;;13.70;;
23555;SDS011;11956;53.184;8.578;2022-09-09T18:57:59;14.50;;;12.40;;
23555;SDS011;11956;53.184;8.578;2022-09-09T19:01:00;14.10;;;12.25;;
23555;SDS011;11956;53.184;8.578;2022-09-09T19:04:04;15.40;;;12.00;;
23555;SDS011;11956;53.184;8.578;2022-09-09T19:07:06;19.15;;;14.63;;
23555;SDS011;11956;53.184;8.578;2022-09-09T19:10:07;14.90;;;12.05;;
23555;SDS011;11956;53.184;8.578;2022-09-09T19:13:08;16.42;;;13.55;;
23555;SDS011;11956;53.184;8.578;2022-09-09T19:16:13;21.20;;;16.67;;
23555;SDS011;11956;53.184;8.578;2022-09-09T19:19:16;16.48;;;12.52;;
23555;SDS011;11956;53.184;8.578;2022-09-09T19:22:22;18.98;;;15.23;;
23555;SDS011;11956;53.184;8.578;2022-09-09T19:25:25;21.27;;;15.65;;
23555;SDS011;11956;53.184;8.578;2022-09-09T19:28:26;19.73;;;16.00;;
23555;SDS011;11956;53.184;8.578;2022-09-09T19:31:27;24.17;;;17.95;;
23555;SDS011;11956;53.184;8.578;2022-09-09T19:34:29;22.77;;;15.88;;
23555;SDS011;11956;53.184;8.578;2022-09-09T19:37:30;21.20;;;16.30;;
23555;SDS011;11956;53.184;8.578;2022-09-09T19:40:33;17.42;;;13.65;;
23555;SDS011;11956;53.184;8.578;2022-09-09T19:43:35;23.52;;;17.35;;
23555;SDS011;11956;53.184;8.578;2022-09-09T19:46:37;19.88;;;15.05;;
23555;SDS011;11956;53.184;8.578;2022-09-09T19:49:39;19.17;;;16.43;;
23555;SDS011;11956;53.184;8.578;2022-09-09T19:52:40;16.38;;;11.73;;
23555;SDS011;11956;53.184;8.578;2022-09-09T19:55:41;16.70;;;13.15;;
23555;SDS011;11956;53.184;8.578;2022-09-09T19:58:43;18.98;;;13.07;;
23555;SDS011;11956;53.184;8.578;2022-09-09T20:04:47;21.88;;;15.57;;
23555;SDS011;11956;53.184;8.578;2022-09-09T20:07:48;23.98;;;15.38;;
23555;SDS011;11956;53.184;8.578;2022-09-09T20:10:49;19.02;;;14.63;;
23555;SDS011;11956;53.184;8.578;2022-09-09T20:13:52;14.40;;;10.98;;
23555;SDS011;11956;53.184;8.578;2022-09-09T20:16:53;16.45;;;12.30;;
23555;SDS011;11956;53.184;8.578;2022-09-09T20:19:55;15.70;;;12.10;;
23555;SDS011;11956;53.184;8.578;2022-09-09T20:22:56;18.65;;;13.63;;
23555;SDS011;11956;53.184;8.578;2022-09-09T20:25:59;15.25;;;12.73;;
23555;SDS011;11956;53.184;8.578;2022-09-09T20:29:06;17.27;;;13.73;;
23555;SDS011;11956;53.184;8.578;2022-09-09T20:32:10;20.52;;;14.75;;
23555;SDS011;11956;53.184;8.578;2022-09-09T20:35:11;15.07;;;12.15;;
23555;SDS011;11956;53.184;8.578;2022-09-09T20:38:13;18.35;;;12.82;;